Time;durP1;ratioP1;P1;durP2;ratioP2;P2;SDS_P1;SDS_P2;PMS_P1;PMS_P2;Temp;Humidity;BMP_temperature;BMP_pressure;BME280_temperature;BME280_humidity;BME280_pressure;Samples;Min_cycle;Max_cycle;Signal;HPM_P1;HPM_P2
2022/03/06 00:00:47;;;;;;;11.63;4.90;;;;;;;-145.14;100.00;70583.66;4998289;28;20452;-74
2022/03/06 00:03:13;;;;;;;5.70;4.67;;;;;;;-145.14;100.00;70583.66;4994803;28;20216;-74
2022/03/06 00:05:38;;;;;;;6.50;4.40;;;;;;;-145.14;100.00;70583.66;4994305;28;20551;-74
2022/03/06 00:08:04;;;;;;;11.33;4.60;;;;;;;-145.14;100.00;70583.66;4992139;28;20266;-74
2022/03/06 00:10:30;;;;;;;6.83;4.80;;;;;;;-145.14;100.00;70583.66;4995483;28;20777;-74
2022/03/06 00:12:56;;;;;;;5.60;4.67;;;;;;;-145.14;100.00;70583.66;4996501;28;20463;-74
2022/03/06 00:15:26;;;;;;;6.13;4.13;;;;;;;-145.14;100.00;70583.66;5000742;28;20598;-74
2022/03/06 00:17:53;;;;;;;5.37;4.47;;;;;;;-145.14;100.00;70583.66;4990556;28;20196;-74
2022/03/06 00:20:18;;;;;;;6.40;4.80;;;;;;;-145.14;100.00;70583.66;4989734;28;20480;-74
2022/03/06 00:22:44;;;;;;;7.53;3.57;;;;;;;-145.14;100.00;70583.66;4992052;28;20893;-73
2022/03/06 00:25:10;;;;;;;5.67;4.37;;;;;;;-145.14;100.00;70583.66;4993138;28;20791;-74
2022/03/06 00:27:35;;;;;;;6.00;3.70;;;;;;;-145.14;100.00;70583.66;4994012;28;20593;-74
2022/03/06 00:30:01;;;;;;;5.30;4.10;;;;;;;-145.14;100.00;70583.66;4993400;28;21027;-73
2022/03/06 00:32:27;;;;;;;6.13;4.47;;;;;;;-145.14;100.00;70583.66;4989690;28;26947;-74
2022/03/06 00:34:52;;;;;;;4.57;4.10;;;;;;;-145.14;100.00;70583.66;4991600;28;20960;-72
2022/03/06 00:37:18;;;;;;;5.63;4.37;;;;;;;-145.14;100.00;70583.66;4991100;28;20225;-73
2022/03/06 00:39:44;;;;;;;9.50;4.47;;;;;;;-145.14;100.00;70583.66;4993644;28;20211;-73
2022/03/06 00:42:11;;;;;;;6.03;4.53;;;;;;;-145.14;100.00;70583.66;4991815;28;20987;-73
2022/03/06 00:44:37;;;;;;;7.37;4.77;;;;;;;-145.14;100.00;70583.66;4997952;28;21046;-74
2022/03/06 00:47:04;;;;;;;6.10;4.00;;;;;;;-145.14;100.00;70583.66;4999350;28;20451;-74
2022/03/06 00:49:30;;;;;;;4.40;3.90;;;;;;;-145.14;100.00;70583.66;4990971;28;20433;-75
2022/03/06 00:51:55;;;;;;;5.70;4.03;;;;;;;-145.14;100.00;70583.66;4991315;28;20451;-75
2022/03/06 00:54:21;;;;;;;5.17;3.90;;;;;;;-145.14;100.00;70583.66;4989471;28;20248;-74
2022/03/06 00:56:48;;;;;;;5.37;4.30;;;;;;;-145.14;100.00;70583.66;4995195;28;20585;-74
2022/03/06 00:59:14;;;;;;;5.30;4.07;;;;;;;-145.14;100.00;70583.66;4994120;28;20197;-74
2022/03/06 01:01:40;;;;;;;5.00;3.87;;;;;;;-145.14;100.00;70583.66;4996282;28;20448;-74
2022/03/06 01:04:06;;;;;;;5.33;3.90;;;;;;;-145.14;100.00;70583.66;4995651;28;20806;-75
2022/03/06 01:06:31;;;;;;;4.73;4.20;;;;;;;-145.14;100.00;70583.66;4990441;28;20444;-73
2022/03/06 01:08:57;;;;;;;5.00;4.00;;;;;;;-145.14;100.00;70583.66;4988660;28;20200;-73
2022/03/06 01:11:22;;;;;;;8.23;4.00;;;;;;;-145.14;100.00;70583.66;4993807;28;20388;-73
2022/03/06 01:13:48;;;;;;;5.83;3.50;;;;;;;-145.14;100.00;70583.66;4992901;28;20216;-73
2022/03/06 01:16:14;;;;;;;4.40;3.80;;;;;;;-145.14;100.00;70583.66;4992523;28;20197;-73
2022/03/06 01:18:39;;;;;;;6.37;3.97;;;;;;;-145.14;100.00;70583.66;4992592;28;20193;-75
2022/03/06 01:21:05;;;;;;;4.50;3.60;;;;;;;-145.14;100.00;70583.66;4992132;28;20999;-73
2022/03/06 01:23:30;;;;;;;6.33;3.00;;;;;;;-145.14;100.00;70583.66;4990978;28;20212;-73
2022/03/06 01:25:56;;;;;;;3.87;3.20;;;;;;;-145.14;100.00;70583.66;4991443;28;20193;-74
2022/03/06 01:28:23;;;;;;;6.70;3.13;;;;;;;-145.14;100.00;70583.66;4994685;28;20217;-74
2022/03/06 01:30:49;;;;;;;4.63;3.23;;;;;;;-145.14;100.00;70583.66;4990817;28;20447;-74
2022/03/06 01:35:49;;;;;;;4.17;3.20;;;;;;;-145.14;100.00;70583.66;4989750;28;20220;-71
2022/03/06 01:38:14;;;;;;;7.30;3.80;;;;;;;-145.14;100.00;70583.66;4996622;28;20436;-71
2022/03/06 01:40:40;;;;;;;6.53;3.60;;;;;;;-145.14;100.00;70583.66;4997454;28;20197;-71
2022/03/06 01:43:06;;;;;;;3.90;3.07;;;;;;;-145.14;100.00;70583.66;4994325;28;20642;-71
2022/03/06 01:45:31;;;;;;;5.03;3.30;;;;;;;-145.14;100.00;70583.66;4979826;28;20205;-71
2022/03/06 01:47:58;;;;;;;2.97;2.63;;;;;;;-145.14;100.00;70583.66;4980724;28;20255;-71
2022/03/06 01:50:30;;;;;;;4.57;3.27;;;;;;;-145.14;100.00;70583.66;4978543;28;20763;-71
2022/03/06 01:52:57;;;;;;;3.43;2.80;;;;;;;-145.14;100.00;70583.66;4974171;28;20443;-71
2022/03/06 01:55:24;;;;;;;4.97;3.20;;;;;;;-145.14;100.00;70583.66;4977434;28;20988;-72
2022/03/06 01:57:52;;;;;;;5.60;3.40;;;;;;;-145.14;100.00;70583.66;4976478;28;20705;-71
2022/03/06 02:00:25;;;;;;;3.43;3.13;;;;;;;-145.14;100.00;70583.66;4985480;28;20979;-71
2022/03/06 02:02:52;;;;;;;5.00;3.27;;;;;;;-145.14;100.00;70583.66;4983827;28;20437;-71
2022/03/06 02:05:18;;;;;;;4.20;3.60;;;;;;;-145.14;100.00;70583.66;5001745;28;20457;-72
2022/03/06 02:07:44;;;;;;;8.10;4.00;;;;;;;-145.14;100.00;70583.66;4982393;28;21207;-72
2022/03/06 02:10:10;;;;;;;5.73;3.43;;;;;;;-145.14;100.00;70583.66;4974943;28;20186;-72
2022/03/06 02:12:37;;;;;;;4.43;3.27;;;;;;;-145.14;100.00;70583.66;4986378;28;20904;-72
2022/03/06 02:15:06;;;;;;;4.10;2.73;;;;;;;-145.14;100.00;70583.66;4980730;28;20850;-71
2022/03/06 02:17:32;;;;;;;5.73;2.93;;;;;;;-145.14;100.00;70583.66;4981394;28;20441;-72
2022/03/06 02:20:13;;;;;;;4.20;2.90;;;;;;;-145.14;100.00;70583.66;4985089;28;20491;-72
2022/03/06 02:22:42;;;;;;;7.90;3.03;;;;;;;-145.14;100.00;70583.66;4984055;28;20190;-72
2022/03/06 02:25:15;;;;;;;5.07;2.87;;;;;;;-145.14;100.00;70583.66;4983745;28;20977;-72
2022/03/06 02:27:40;;;;;;;5.20;3.60;;;;;;;-145.14;100.00;70583.66;4986883;28;20789;-71
2022/03/06 02:30:08;;;;;;;3.70;2.50;;;;;;;-145.14;100.00;70583.66;4988478;28;20501;-72
2022/03/06 02:32:35;;;;;;;3.37;2.50;;;;;;;-145.14;100.00;70583.66;4988822;28;20309;-72
2022/03/06 02:35:00;;;;;;;4.27;3.13;;;;;;;-145.14;100.00;70583.66;4983105;28;20476;-72
2022/03/06 02:37:26;;;;;;;9.50;3.10;;;;;;;-145.14;100.00;70583.66;4981151;28;20436;-72
2022/03/06 02:39:52;;;;;;;3.30;2.67;;;;;;;-145.14;100.00;70583.66;4979707;28;20197;-72
2022/03/06 02:42:31;;;;;;;2.83;2.60;;;;;;;-145.14;100.00;70583.66;4985483;28;20260;-72
2022/03/06 02:44:58;;;;;;;7.47;2.77;;;;;;;-145.14;100.00;70583.66;4970945;28;20202;-72
2022/03/06 02:47:24;;;;;;;5.67;3.20;;;;;;;-145.14;100.00;70583.66;4982826;28;20532;-72
2022/03/06 02:49:50;;;;;;;4.87;2.80;;;;;;;-145.14;100.00;70583.66;4980821;28;21499;-72
2022/03/06 02:52:16;;;;;;;6.37;3.17;;;;;;;-145.14;100.00;70583.66;4981546;28;20459;-72
2022/03/06 02:54:41;;;;;;;3.63;3.27;;;;;;;-145.14;100.00;70583.66;4982052;28;20221;-71
2022/03/06 02:57:08;;;;;;;3.90;2.60;;;;;;;-145.14;100.00;70583.66;4979552;28;20487;-72
2022/03/06 02:59:33;;;;;;;4.53;2.97;;;;;;;-145.14;100.00;70583.66;4979188;28;20201;-72
2022/03/06 03:02:00;;;;;;;3.00;2.70;;;;;;;-145.14;100.00;70583.66;4983795;28;20531;-72
2022/03/06 03:04:25;;;;;;;4.10;2.70;;;;;;;-145.14;100.00;70583.66;4982276;28;20472;-72
2022/03/06 03:06:52;;;;;;;5.20;2.90;;;;;;;-145.14;100.00;70583.66;4980114;28;20447;-72
2022/03/06 03:09:19;;;;;;;3.60;2.30;;;;;;;-145.14;100.00;70583.66;4981379;28;20218;-72
2022/03/06 03:11:46;;;;;;;3.27;2.80;;;;;;;-145.14;100.00;70583.66;4982847;28;21392;-72
2022/03/06 03:14:13;;;;;;;4.90;2.63;;;;;;;-145.14;100.00;70583.66;4979160;28;23216;-72
2022/03/06 03:16:39;;;;;;;2.83;2.50;;;;;;;-145.14;100.00;70583.66;4980765;28;20475;-72
2022/03/06 03:19:04;;;;;;;3.40;2.87;;;;;;;-145.14;100.00;70583.66;4982235;28;20942;-72
2022/03/06 03:21:30;;;;;;;3.27;2.13;;;;;;;-145.14;100.00;70583.66;4984037;28;20459;-72
2022/03/06 03:23:55;;;;;;;4.90;3.13;;;;;;;-145.14;100.00;70583.66;4976926;28;20217;-72
2022/03/06 03:26:20;;;;;;;3.33;2.53;;;;;;;-145.14;100.00;70583.66;4979712;28;20694;-72
2022/03/06 03:28:46;;;;;;;3.77;2.77;;;;;;;-145.14;100.00;70583.66;4979821;28;20182;-72
2022/03/06 03:31:11;;;;;;;5.07;2.80;;;;;;;-145.14;100.00;70583.66;4979396;28;20205;-71
2022/03/06 03:33:37;;;;;;;3.60;2.67;;;;;;;-145.14;100.00;70583.66;4978977;28;20217;-72
2022/03/06 03:36:02;;;;;;;3.70;2.90;;;;;;;-145.14;100.00;70583.66;4980713;28;20189;-72
2022/03/06 03:38:28;;;;;;;3.93;2.40;;;;;;;-145.14;100.00;70583.66;4973702;28;20177;-72
2022/03/06 03:40:53;;;;;;;4.97;3.03;;;;;;;-145.14;100.00;70583.66;4979752;28;20202;-72
2022/03/06 03:43:19;;;;;;;2.83;2.13;;;;;;;-145.14;100.00;70583.66;4980387;28;20277;-72
2022/03/06 03:45:44;;;;;;;3.57;2.67;;;;;;;-145.14;100.00;70583.66;4980506;28;20944;-72
2022/03/06 03:48:10;;;;;;;3.63;2.93;;;;;;;-145.14;100.00;70583.66;4981112;28;20213;-71
2022/03/06 03:50:35;;;;;;;4.63;2.50;;;;;;;-145.14;100.00;70583.66;4979100;28;20189;-72
2022/03/06 03:53:02;;;;;;;3.70;2.60;;;;;;;-145.14;100.00;70583.66;4979385;28;20209;-72
2022/03/06 03:55:27;;;;;;;3.60;2.87;;;;;;;-145.14;100.00;70583.66;4973343;28;20206;-72
2022/03/06 03:57:52;;;;;;;3.80;2.80;;;;;;;-145.14;100.00;70583.66;4979582;28;20518;-71
2022/03/06 04:00:18;;;;;;;4.67;3.10;;;;;;;-145.14;100.00;70583.66;4975493;28;20206;-71
2022/03/06 04:02:43;;;;;;;4.13;2.40;;;;;;;-145.14;100.00;70583.66;4984214;28;20194;-72
2022/03/06 04:05:09;;;;;;;3.90;2.40;;;;;;;-145.14;100.00;70583.66;4986122;28;20209;-72
2022/03/06 04:07:35;;;;;;;4.20;2.50;;;;;;;-145.14;100.00;70583.66;4978979;28;20189;-72
2022/03/06 04:10:00;;;;;;;4.40;2.47;;;;;;;-145.14;100.00;70583.66;4978313;28;20173;-72
2022/03/06 04:12:26;;;;;;;4.70;3.10;;;;;;;-145.14;100.00;70583.66;4980874;28;20194;-72
2022/03/06 04:14:51;;;;;;;3.67;2.40;;;;;;;-145.14;100.00;70583.66;4976182;28;20690;-72
2022/03/06 04:17:17;;;;;;;3.67;2.80;;;;;;;-145.14;100.00;70583.66;4982553;28;20178;-71
2022/03/06 04:19:42;;;;;;;4.00;2.57;;;;;;;-145.14;100.00;70583.66;4979361;28;20202;-71
2022/03/06 04:22:07;;;;;;;4.17;2.80;;;;;;;-145.14;100.00;70583.66;4975743;28;20194;-72
2022/03/06 04:24:33;;;;;;;3.33;2.57;;;;;;;-145.14;100.00;70583.66;4981118;28;20465;-72
2022/03/06 04:26:58;;;;;;;4.13;2.70;;;;;;;-145.14;100.00;70583.66;4979376;28;20666;-72
2022/03/06 04:29:24;;;;;;;2.70;2.40;;;;;;;-145.14;100.00;70583.66;4978813;28;20252;-72
2022/03/06 04:31:50;;;;;;;4.07;2.93;;;;;;;-145.14;100.00;70583.66;4981699;28;20178;-72
2022/03/06 04:34:15;;;;;;;5.13;2.40;;;;;;;-145.14;100.00;70583.66;4977490;28;20218;-72
2022/03/06 04:36:41;;;;;;;6.00;2.60;;;;;;;-145.14;100.00;70583.66;4979273;28;21025;-72
2022/03/06 04:39:07;;;;;;;5.63;2.57;;;;;;;-145.14;100.00;70583.66;4978328;28;20192;-72
2022/03/06 04:41:33;;;;;;;2.80;2.40;;;;;;;-145.14;100.00;70583.66;4983607;28;20444;-72
2022/03/06 04:43:58;;;;;;;4.40;2.70;;;;;;;-145.14;100.00;70583.66;4980408;28;20283;-72
2022/03/06 04:46:24;;;;;;;2.87;2.10;;;;;;;-145.14;100.00;70583.66;4975159;28;20190;-72
2022/03/06 04:48:50;;;;;;;3.80;2.17;;;;;;;-145.14;100.00;70583.66;4984295;28;20197;-72
2022/03/06 04:51:16;;;;;;;5.03;2.17;;;;;;;-145.14;100.00;70583.66;4981467;28;20189;-73
2022/03/06 04:53:42;;;;;;;3.37;2.13;;;;;;;-145.14;100.00;70583.66;4977979;28;20466;-72
2022/03/06 04:56:09;;;;;;;4.00;2.40;;;;;;;-145.14;100.00;70583.66;4978450;28;20457;-72
2022/03/06 04:58:35;;;;;;;2.47;2.10;;;;;;;-145.14;100.00;70583.66;4979684;28;20433;-72
2022/03/06 05:01:02;;;;;;;3.40;2.10;;;;;;;-145.14;100.00;70583.66;4980287;28;20539;-72
2022/03/06 05:03:28;;;;;;;3.33;1.90;;;;;;;-145.14;100.00;70583.66;4984731;28;20189;-72
2022/03/06 05:05:54;;;;;;;2.70;1.83;;;;;;;-145.14;100.00;70583.66;4976643;28;20954;-72
2022/03/06 05:08:19;;;;;;;5.50;1.93;;;;;;;-145.14;100.00;70583.66;4976956;28;20942;-72
2022/03/06 05:10:44;;;;;;;4.10;1.80;;;;;;;-145.14;100.00;70583.66;4978336;28;20182;-72
2022/03/06 05:13:11;;;;;;;2.13;1.70;;;;;;;-145.14;100.00;70583.66;4979389;28;20186;-72
2022/03/06 05:15:37;;;;;;;6.63;1.90;;;;;;;-145.14;100.00;70583.66;4979483;28;20209;-72
2022/03/06 05:18:02;;;;;;;4.20;2.40;;;;;;;-145.14;100.00;70583.66;4978811;28;20455;-72
2022/03/06 05:20:28;;;;;;;4.47;2.23;;;;;;;-145.14;100.00;70583.66;4977495;28;20212;-72
2022/03/06 05:22:54;;;;;;;4.90;2.20;;;;;;;-145.14;100.00;70583.66;4976339;28;20443;-72
2022/03/06 05:25:20;;;;;;;3.27;1.63;;;;;;;-145.14;100.00;70583.66;4974614;28;21036;-72
2022/03/06 05:27:45;;;;;;;3.07;2.13;;;;;;;-145.14;100.00;70583.66;4975898;28;20563;-72
2022/03/06 05:30:12;;;;;;;2.57;2.33;;;;;;;-145.14;100.00;70583.66;4972344;28;20251;-72
2022/03/06 05:32:38;;;;;;;1.70;1.60;;;;;;;-145.14;100.00;70583.66;4975936;28;20288;-72
2022/03/06 05:35:05;;;;;;;3.40;2.30;;;;;;;-145.14;100.00;70583.66;4976492;28;20627;-71
2022/03/06 05:37:31;;;;;;;1.97;1.80;;;;;;;-145.14;100.00;70583.66;4978660;28;20449;-72
2022/03/06 05:39:56;;;;;;;6.40;2.57;;;;;;;-145.14;100.00;70583.66;4981492;28;20567;-72
2022/03/06 05:42:22;;;;;;;3.73;1.77;;;;;;;-145.14;100.00;70583.66;4976436;28;20178;-71
2022/03/06 05:44:48;;;;;;;3.40;1.97;;;;;;;-145.14;100.00;70583.66;4976075;28;20300;-71
2022/03/06 05:47:14;;;;;;;3.60;2.00;;;;;;;-145.14;100.00;70583.66;4975678;28;20217;-71
2022/03/06 05:49:39;;;;;;;5.37;2.60;;;;;;;-145.14;100.00;70583.66;4982681;28;20495;-71
2022/03/06 05:52:05;;;;;;;3.13;1.83;;;;;;;-145.14;100.00;70583.66;4977677;28;20194;-72
2022/03/06 05:54:30;;;;;;;5.00;2.33;;;;;;;-145.14;100.00;70583.66;4979718;28;20209;-71
2022/03/06 05:56:56;;;;;;;5.33;2.37;;;;;;;-145.14;100.00;70583.66;4974237;28;20785;-71
2022/03/06 05:59:22;;;;;;;4.07;2.00;;;;;;;-145.14;100.00;70583.66;4976428;28;20220;-71
2022/03/06 06:01:47;;;;;;;3.90;2.10;;;;;;;-145.14;100.00;70583.66;4977623;28;20186;-71
2022/03/06 06:04:13;;;;;;;4.47;1.60;;;;;;;-145.14;100.00;70583.66;4978545;28;20201;-71
2022/03/06 06:06:38;;;;;;;5.00;2.23;;;;;;;-145.14;100.00;70583.66;4979720;28;20213;-71
2022/03/06 06:09:04;;;;;;;6.47;1.73;;;;;;;-145.14;100.00;70583.66;4977811;28;20194;-71
2022/03/06 06:11:30;;;;;;;3.40;1.37;;;;;;;-145.14;100.00;70583.66;4977131;28;20277;-71
2022/03/06 06:13:55;;;;;;;3.23;1.60;;;;;;;-145.14;100.00;70583.66;4994012;28;20619;-71
2022/03/06 06:16:21;;;;;;;3.07;2.00;;;;;;;-145.14;100.00;70583.66;4974931;28;20817;-71
2022/03/06 06:18:46;;;;;;;2.33;2.03;;;;;;;-145.14;100.00;70583.66;4971506;28;20190;-71
2022/03/06 06:21:13;;;;;;;2.50;1.77;;;;;;;-145.14;100.00;70583.66;4980401;28;20221;-71
2022/03/06 06:23:39;;;;;;;2.03;1.50;;;;;;;-145.14;100.00;70583.66;4979843;28;20213;-71
2022/03/06 06:26:05;;;;;;;5.57;1.77;;;;;;;-145.14;100.00;70583.66;4980753;28;20527;-71
2022/03/06 06:28:30;;;;;;;2.20;1.90;;;;;;;-145.14;100.00;70583.66;4981643;28;20450;-71
2022/03/06 06:30:56;;;;;;;2.83;1.50;;;;;;;-145.14;100.00;70583.66;4982503;28;20215;-71
2022/03/06 06:33:21;;;;;;;3.77;2.20;;;;;;;-145.14;100.00;70583.66;4992138;28;20305;-72
2022/03/06 06:35:47;;;;;;;3.53;1.50;;;;;;;-145.14;100.00;70583.66;4980880;28;20633;-71
2022/03/06 06:38:13;;;;;;;3.87;1.67;;;;;;;-145.14;100.00;70583.66;4977736;28;20212;-70
2022/03/06 06:40:39;;;;;;;3.43;2.07;;;;;;;-145.14;100.00;70583.66;4980368;28;20213;-71
2022/03/06 06:43:05;;;;;;;1.53;1.17;;;;;;;-145.14;100.00;70583.66;4978530;28;20551;-71
2022/03/06 06:45:30;;;;;;;1.93;1.10;;;;;;;-145.14;100.00;70583.66;4977815;28;20238;-71
2022/03/06 06:47:56;;;;;;;3.73;1.90;;;;;;;-145.14;100.00;70583.66;4980497;28;20552;-71
2022/03/06 06:50:23;;;;;;;6.53;1.53;;;;;;;-145.14;100.00;70583.66;4983938;28;20456;-71
2022/03/06 06:52:48;;;;;;;2.20;1.40;;;;;;;-145.14;100.00;70583.66;4983718;28;20440;-71
2022/03/06 06:55:14;;;;;;;3.23;1.50;;;;;;;-145.14;100.00;70583.66;4980426;28;20472;-71
2022/03/06 06:57:40;;;;;;;2.80;1.50;;;;;;;-145.14;100.00;70583.66;4981949;28;20178;-71
2022/03/06 07:00:07;;;;;;;3.20;1.50;;;;;;;-145.14;100.00;70583.66;4980324;28;20573;-70
2022/03/06 07:02:33;;;;;;;3.93;1.43;;;;;;;-145.14;100.00;70583.66;4977922;28;20705;-71
2022/03/06 07:04:59;;;;;;;3.73;1.50;;;;;;;-145.14;100.00;70583.66;4980707;28;20559;-71
2022/03/06 07:07:25;;;;;;;1.50;1.40;;;;;;;-145.14;100.00;70583.66;4977621;28;20507;-71
2022/03/06 07:09:51;;;;;;;1.70;1.50;;;;;;;-145.14;100.00;70583.66;4977192;28;20341;-70
2022/03/06 07:12:16;;;;;;;4.70;1.83;;;;;;;-145.14;100.00;70583.66;4982998;28;20597;-70
2022/03/06 07:14:42;;;;;;;2.20;1.97;;;;;;;-145.14;100.00;70583.66;4982426;28;20477;-70
2022/03/06 07:17:07;;;;;;;2.20;1.70;;;;;;;-145.14;100.00;70583.66;4978369;28;20269;-71
2022/03/06 07:19:33;;;;;;;2.00;1.30;;;;;;;-145.14;100.00;70583.66;4978779;28;20225;-70
2022/03/06 07:21:59;;;;;;;2.30;1.53;;;;;;;-145.14;100.00;70583.66;4982572;28;20654;-71
2022/03/06 07:24:26;;;;;;;2.20;1.30;;;;;;;-145.14;100.00;70583.66;4981046;28;20519;-71
2022/03/06 07:26:51;;;;;;;1.77;1.50;;;;;;;-145.14;100.00;70583.66;4972843;28;20437;-71
2022/03/06 07:29:20;;;;;;;1.63;1.27;;;;;;;-145.14;100.00;70583.66;4979446;28;20516;-71
2022/03/06 07:31:45;;;;;;;3.13;1.57;;;;;;;-145.14;100.00;70583.66;4982120;28;20253;-71
2022/03/06 07:34:11;;;;;;;1.90;1.10;;;;;;;-145.14;100.00;70583.66;4997279;23;20792;-87
2022/03/06 07:36:36;;;;;;;3.40;2.03;;;;;;;-145.14;100.00;70583.66;4999153;28;20182;-86
2022/03/06 07:39:02;;;;;;;1.87;1.77;;;;;;;-145.14;100.00;70583.66;5003730;28;20188;-86
2022/03/06 07:41:28;;;;;;;2.50;1.50;;;;;;;-145.14;100.00;70583.66;5003148;28;20184;-86
2022/03/06 07:43:54;;;;;;;1.60;1.50;;;;;;;-145.14;100.00;70583.66;5005063;28;20468;-87
2022/03/06 07:46:19;;;;;;;4.40;1.50;;;;;;;-145.14;100.00;70583.66;5001922;28;20184;-89
2022/03/06 07:48:45;;;;;;;2.83;1.70;;;;;;;-145.14;100.00;70583.66;5005844;28;20193;-85
2022/03/06 07:51:10;;;;;;;2.47;1.90;;;;;;;-145.14;100.00;70583.66;5002644;28;20185;-88
2022/03/06 07:53:36;;;;;;;2.10;1.40;;;;;;;-145.14;100.00;70583.66;5003142;28;20323;-85
2022/03/06 07:56:01;;;;;;;2.03;1.87;;;;;;;-145.14;100.00;70583.66;5001871;28;20196;-84
2022/03/06 07:58:27;;;;;;;3.13;1.60;;;;;;;-145.14;100.00;70583.66;5000485;28;20189;-88
2022/03/06 08:00:52;;;;;;;1.60;1.50;;;;;;;-145.14;100.00;70583.66;5002907;28;20245;-87
2022/03/06 08:03:21;;;;;;;1.50;1.40;;;;;;;-145.14;100.00;70583.66;4999668;28;20189;-85
2022/03/06 08:05:46;;;;;;;1.83;1.37;;;;;;;-145.14;100.00;70583.66;5001011;28;20205;-86
2022/03/06 08:08:12;;;;;;;4.77;1.80;;;;;;;-145.14;100.00;70583.66;5010636;28;20525;-86
2022/03/06 08:10:38;;;;;;;2.90;1.67;;;;;;;-145.14;100.00;70583.66;4997168;28;20280;-86
2022/03/06 08:13:03;;;;;;;1.50;1.40;;;;;;;-145.14;100.00;70583.66;4995884;28;20188;-85
2022/03/06 08:15:29;;;;;;;2.90;1.77;;;;;;;-145.14;100.00;70583.66;5003426;28;20209;-85
2022/03/06 08:17:54;;;;;;;3.97;1.43;;;;;;;-145.14;100.00;70583.66;4999969;28;20257;-86
2022/03/06 08:20:20;;;;;;;2.93;1.33;;;;;;;-145.14;100.00;70583.66;5002695;28;20215;-86
2022/03/06 08:22:45;;;;;;;2.70;1.43;;;;;;;-145.14;100.00;70583.66;4998427;28;20196;-83
2022/03/06 08:25:11;;;;;;;2.83;1.50;;;;;;;-145.14;100.00;70583.66;5001989;28;20220;-82
2022/03/06 08:27:37;;;;;;;3.43;1.50;;;;;;;-145.14;100.00;70583.66;5001976;28;20198;-79
2022/03/06 08:30:05;;;;;;;6.30;1.87;;;;;;;-145.14;100.00;70583.66;4998033;28;20312;-78
2022/03/06 08:32:31;;;;;;;2.40;1.47;;;;;;;-145.14;100.00;70583.66;4995313;28;20212;-82
2022/03/06 08:34:57;;;;;;;2.70;1.40;;;;;;;-145.14;100.00;70583.66;4993053;28;20956;-79
2022/03/06 08:37:22;;;;;;;4.60;1.97;;;;;;;-145.14;100.00;70583.66;4998146;28;20617;-78
2022/03/06 08:39:49;;;;;;;6.10;1.53;;;;;;;-145.14;100.00;70583.66;4999868;28;20434;-79
2022/03/06 08:42:15;;;;;;;1.30;1.20;;;;;;;-145.14;100.00;70583.66;5000841;28;21228;-82
2022/03/06 08:44:41;;;;;;;1.27;1.10;;;;;;;-145.14;100.00;70583.66;4990364;28;20614;-81
2022/03/06 08:47:07;;;;;;;3.13;1.67;;;;;;;-145.14;100.00;70583.66;4994096;28;20443;-82
2022/03/06 08:49:33;;;;;;;2.30;1.20;;;;;;;-145.14;100.00;70583.66;4989673;28;20300;-80
2022/03/06 08:51:58;;;;;;;2.30;1.20;;;;;;;-145.14;100.00;70583.66;5002323;28;20542;-81
2022/03/06 08:54:24;;;;;;;2.80;1.57;;;;;;;-145.14;100.00;70583.66;4995983;28;20219;-83
2022/03/06 08:56:49;;;;;;;2.27;1.47;;;;;;;-145.14;100.00;70583.66;4992296;28;20271;-82
2022/03/06 08:59:15;;;;;;;3.00;1.60;;;;;;;-145.14;100.00;70583.66;4996536;28;20519;-85
2022/03/06 09:01:41;;;;;;;2.50;1.60;;;;;;;-145.14;100.00;70583.66;4996813;28;20193;-84
2022/03/06 09:04:06;;;;;;;2.10;1.50;;;;;;;-145.14;100.00;70583.66;5000356;28;20537;-85
2022/03/06 09:06:32;;;;;;;2.80;1.70;;;;;;;-145.14;100.00;70583.66;4995664;28;20193;-81
2022/03/06 09:08:58;;;;;;;2.07;1.30;;;;;;;-145.14;100.00;70583.66;4996914;28;20185;-82
2022/03/06 09:11:23;;;;;;;1.60;1.50;;;;;;;-145.14;100.00;70583.66;4995937;28;20638;-82
2022/03/06 09:13:49;;;;;;;2.97;1.70;;;;;;;-145.14;100.00;70583.66;4996704;28;20180;-80
2022/03/06 09:16:14;;;;;;;2.40;1.67;;;;;;;-145.14;100.00;70583.66;4999150;28;20185;-76
2022/03/06 09:18:40;;;;;;;2.60;1.80;;;;;;;-145.14;100.00;70583.66;4995747;28;20199;-85
2022/03/06 09:21:06;;;;;;;3.00;1.60;;;;;;;-145.14;100.00;70583.66;4993827;28;20580;-80
2022/03/06 09:23:32;;;;;;;2.40;1.50;;;;;;;-145.14;100.00;70583.66;5001689;28;20268;-79
2022/03/06 09:25:57;;;;;;;1.57;1.47;;;;;;;-145.14;100.00;70583.66;5000341;28;21017;-82
2022/03/06 09:28:23;;;;;;;2.30;1.90;;;;;;;-145.14;100.00;70583.66;4994925;28;20336;-81
2022/03/06 09:30:48;;;;;;;2.30;1.73;;;;;;;-145.14;100.00;70583.66;4993070;28;20181;-79
2022/03/06 09:33:14;;;;;;;3.00;1.87;;;;;;;-145.14;100.00;70583.66;4996584;28;20645;-81
2022/03/06 09:35:40;;;;;;;2.30;1.50;;;;;;;-145.14;100.00;70583.66;4992417;28;20670;-82
2022/03/06 09:38:05;;;;;;;1.37;1.20;;;;;;;-145.14;100.00;70583.66;4993299;28;20458;-83
2022/03/06 09:40:31;;;;;;;1.97;1.37;;;;;;;-145.14;100.00;70583.66;4994042;28;20201;-82
2022/03/06 09:42:57;;;;;;;4.23;1.50;;;;;;;-145.14;100.00;70583.66;4996228;28;20625;-81
2022/03/06 09:45:23;;;;;;;3.70;1.70;;;;;;;-145.14;100.00;70583.66;4995696;28;20274;-82
2022/03/06 09:47:49;;;;;;;3.90;1.53;;;;;;;-145.14;100.00;70583.66;4997822;28;20506;-84
2022/03/06 09:50:16;;;;;;;2.70;1.70;;;;;;;-145.14;100.00;70583.66;4996532;28;20447;-85
2022/03/06 09:52:42;;;;;;;2.87;1.97;;;;;;;-145.14;100.00;70583.66;4998921;28;20462;-85
2022/03/06 09:55:14;;;;;;;1.80;1.50;;;;;;;-145.14;100.00;70583.66;4995112;28;20460;-85
2022/03/06 09:57:40;;;;;;;4.07;1.90;;;;;;;-145.14;100.00;70583.66;4990906;28;20522;-86
2022/03/06 10:00:08;;;;;;;3.10;1.67;;;;;;;-145.14;100.00;70583.66;5001767;28;20883;-86
2022/03/06 10:03:00;;;;;;;3.10;1.60;;;;;;;-145.14;100.00;70583.66;4998412;28;20204;-86
2022/03/06 10:05:36;;;;;;;2.40;1.73;;;;;;;-145.14;100.00;70583.66;5001440;28;20451;-86
2022/03/06 10:08:21;;;;;;;4.30;1.60;;;;;;;-145.14;100.00;70583.66;5003479;28;20442;-83
2022/03/06 10:10:50;;;;;;;2.30;1.53;;;;;;;-145.14;100.00;70583.66;5000131;28;20444;-82
2022/03/06 10:13:37;;;;;;;3.93;1.70;;;;;;;-145.14;100.00;70583.66;4998913;28;20887;-82
2022/03/06 10:16:10;;;;;;;3.70;2.10;;;;;;;-145.14;100.00;70583.66;4997339;28;20488;-82
2022/03/06 10:18:43;;;;;;;2.60;1.60;;;;;;;-145.14;100.00;70583.66;4998026;28;21001;-82
2022/03/06 10:21:09;;;;;;;2.60;1.60;;;;;;;-145.14;100.00;70583.66;5004047;28;20570;-85
2022/03/06 10:23:35;;;;;;;3.17;1.53;;;;;;;-145.14;100.00;70583.66;5004045;28;20543;-86
2022/03/06 10:26:07;;;;;;;5.73;1.80;;;;;;;-145.14;100.00;70583.66;5001581;28;20293;-86
2022/03/06 10:28:51;;;;;;;3.00;1.70;;;;;;;-145.14;100.00;70583.66;5020429;28;20461;-85
2022/03/06 10:31:18;;;;;;;2.57;1.93;;;;;;;-145.14;100.00;70583.66;4997576;28;20505;-87
2022/03/06 10:34:08;;;;;;;2.17;1.37;;;;;;;-145.14;100.00;70583.66;4998717;28;20460;-85
2022/03/06 10:36:39;;;;;;;2.53;1.93;;;;;;;-145.14;100.00;70583.66;5001462;28;20531;-86
2022/03/06 10:39:20;;;;;;;2.07;1.70;;;;;;;-145.14;100.00;70583.66;5001253;28;20470;-84
2022/03/06 10:41:48;;;;;;;2.47;1.57;;;;;;;-145.14;100.00;70583.66;4997499;28;20521;-85
2022/03/06 10:44:14;;;;;;;4.40;1.40;;;;;;;-145.14;100.00;70583.66;5000257;28;20455;-84
2022/03/06 10:46:41;;;;;;;3.90;1.70;;;;;;;-145.14;100.00;70583.66;4993870;28;20535;-85
2022/03/06 10:49:12;;;;;;;4.50;1.53;;;;;;;-145.14;100.00;70583.66;4997730;28;20448;-85
2022/03/06 10:51:40;;;;;;;3.83;1.70;;;;;;;-145.14;100.00;70583.66;5001913;28;20443;-85
2022/03/06 10:54:06;;;;;;;3.10;1.53;;;;;;;-145.14;100.00;70583.66;5004558;28;20906;-85
2022/03/06 10:56:32;;;;;;;2.53;1.53;;;;;;;-145.14;100.00;70583.66;5008182;28;20952;-85
2022/03/06 10:58:58;;;;;;;3.13;2.00;;;;;;;-145.14;100.00;70583.66;5007278;28;20475;-85
2022/03/06 11:01:24;;;;;;;2.80;1.53;;;;;;;-145.14;100.00;70583.66;5008722;28;20288;-85
2022/03/06 11:03:53;;;;;;;1.97;1.40;;;;;;;-145.14;100.00;70583.66;5007850;28;20439;-85
2022/03/06 11:06:20;;;;;;;4.70;2.13;;;;;;;-145.14;100.00;70583.66;5005845;28;20424;-85
2022/03/06 11:08:53;;;;;;;2.97;1.77;;;;;;;-145.14;100.00;70583.66;5008404;28;20431;-85